Time;durP1;ratioP1;P1;durP2;ratioP2;P2;SDS_P1;SDS_P2;PMS_P1;PMS_P2;Temp;Humidity;BMP_temperature;BMP_pressure;BME280_temperature;BME280_humidity;BME280_pressure;Samples;Min_cycle;Max_cycle;Signal;HPM_P1;HPM_P2
2023/06/10 00:01:50;0.00;0.00;0.62;0.00;0.00;0.62;3.43;3.13;;;30.70;23.20;;;;;;2252234;61;20457;-61
2023/06/10 00:04:36;0.00;0.00;0.62;0.00;0.00;0.62;3.93;3.40;;;30.70;23.20;;;;;;2255894;61;20390;-60
2023/06/10 00:07:21;0.00;0.00;0.62;0.00;0.00;0.62;3.40;3.10;;;30.60;23.20;;;;;;2256801;61;20386;-61
2023/06/10 00:10:08;0.00;0.00;0.62;0.00;0.00;0.62;5.67;3.40;;;30.60;23.20;;;;;;2256731;61;20362;-60
2023/06/10 00:12:53;0.00;0.00;0.62;0.00;0.00;0.62;3.70;3.10;;;30.60;23.20;;;;;;2256269;61;20398;-61
2023/06/10 00:15:38;0.00;0.00;0.62;0.00;0.00;0.62;4.00;3.10;;;30.60;23.20;;;;;;2256828;61;20386;-59
2023/06/10 00:18:23;0.00;0.00;0.62;0.00;0.00;0.62;3.33;3.03;;;30.60;23.10;;;;;;2256440;61;20391;-61
2023/06/10 00:21:07;0.00;0.00;0.62;0.00;0.00;0.62;3.50;3.10;;;30.60;23.20;;;;;;2256695;61;20559;-65
2023/06/10 00:23:53;0.00;0.00;0.62;0.00;0.00;0.62;4.10;3.70;;;30.60;23.20;;;;;;2256731;61;20490;-59
2023/06/10 00:26:40;0.00;0.00;0.62;0.00;0.00;0.62;3.73;3.43;;;30.60;23.20;;;;;;2253528;61;20370;-59
2023/06/10 00:29:25;0.00;0.00;0.62;0.00;0.00;0.62;4.70;3.70;;;30.60;23.20;;;;;;2256668;61;20371;-60
2023/06/10 00:32:11;0.00;0.00;0.62;0.00;0.00;0.62;3.90;3.50;;;30.60;23.70;;;;;;2255959;61;20390;-60
2023/06/10 00:34:56;0.00;0.00;0.62;0.00;0.00;0.62;3.30;3.00;;;30.60;23.10;;;;;;2256758;61;20363;-60
2023/06/10 00:37:40;0.00;0.00;0.62;0.00;0.00;0.62;4.30;3.30;;;30.60;23.10;;;;;;2256734;61;20459;-62
2023/06/10 00:40:25;0.00;0.00;0.62;0.00;0.00;0.62;3.57;3.07;;;30.60;23.10;;;;;;2256365;61;20683;-59
2023/06/10 00:43:11;0.00;0.00;0.62;0.00;0.00;0.62;3.37;3.07;;;30.60;23.10;;;;;;2252956;61;20363;-60
2023/06/10 00:45:56;0.00;0.00;0.62;0.00;0.00;0.62;4.90;2.97;;;30.60;23.00;;;;;;2256428;61;20378;-61
2023/06/10 00:48:43;0.00;0.00;0.62;0.00;0.00;0.62;3.70;2.90;;;30.60;23.00;;;;;;2547023;45;20421;-60
2023/06/10 00:51:28;0.00;0.00;0.62;0.00;0.00;0.62;3.50;2.83;;;30.50;23.00;;;;;;2256897;61;20386;-60
2023/06/10 00:54:13;0.00;0.00;0.62;0.00;0.00;0.62;5.27;2.87;;;30.50;23.00;;;;;;2261067;61;20462;-59
2023/06/10 00:57:01;0.00;0.00;0.62;0.00;0.00;0.62;3.63;3.33;;;30.50;22.90;;;;;;2260543;61;20454;-60
2023/06/10 00:59:49;0.00;0.00;0.62;0.00;0.00;0.62;3.37;3.03;;;30.50;22.90;;;;;;2261192;61;20397;-59
2023/06/10 01:02:34;0.00;0.00;0.62;0.00;0.00;0.62;3.10;2.80;;;30.50;22.90;;;;;;2260734;61;20393;-60
2023/06/10 01:05:20;0.00;0.00;0.62;0.00;0.00;0.62;3.20;2.90;;;30.50;23.00;;;;;;2260196;61;20442;-60
2023/06/10 01:08:15;0.00;0.00;0.62;0.00;0.00;0.62;5.30;3.40;;;30.50;22.90;;;;;;2260579;61;20714;-59
2023/06/10 01:11:03;0.00;0.00;0.62;0.00;0.00;0.62;4.23;3.17;;;30.50;23.00;;;;;;2257092;61;20394;-60
2023/06/10 01:13:51;0.00;0.00;0.62;0.00;0.00;0.62;3.23;2.93;;;30.50;23.00;;;;;;2260120;61;20892;-62
2023/06/10 01:16:40;0.00;0.00;0.62;0.00;0.00;0.62;3.87;3.20;;;30.50;23.00;;;;;;2260407;61;20834;-61
2023/06/10 01:19:25;0.00;0.00;0.62;0.00;0.00;0.62;4.43;3.10;;;30.50;23.00;;;;;;2259536;61;20429;-60
2023/06/10 01:22:15;0.00;0.00;0.62;0.00;0.00;0.62;3.37;3.07;;;30.50;23.00;;;;;;2260407;61;20432;-60
2023/06/10 01:25:03;0.00;0.00;0.62;0.00;0.00;0.62;3.43;2.80;;;30.50;23.00;;;;;;2260189;61;20397;-59
2023/06/10 01:27:50;0.00;0.00;0.62;0.00;0.00;0.62;3.57;2.70;;;30.50;23.00;;;;;;2259551;61;20378;-60
2023/06/10 01:30:45;0.00;0.00;0.62;0.00;0.00;0.62;3.17;2.87;;;30.50;23.00;;;;;;2259699;61;20374;-60
2023/06/10 01:33:35;0.00;0.00;0.62;0.00;0.00;0.62;3.17;2.80;;;30.40;23.00;;;;;;2259891;61;20358;-60
2023/06/10 01:36:23;0.00;0.00;0.62;0.00;0.00;0.62;3.47;3.10;;;30.40;23.10;;;;;;2259815;61;20381;-60
2023/06/10 01:39:11;0.00;0.00;0.62;0.00;0.00;0.62;3.17;2.67;;;30.40;23.10;;;;;;2260230;61;20385;-58
2023/06/10 01:41:57;0.00;0.00;0.62;0.00;0.00;0.62;3.47;3.17;;;30.40;23.10;;;;;;2259456;61;20390;-62
2023/06/10 01:44:42;0.00;0.00;0.62;0.00;0.00;0.62;3.57;3.13;;;30.40;23.10;;;;;;2260100;61;20382;-60
2023/06/10 01:47:26;0.00;0.00;0.62;0.00;0.00;0.62;3.30;2.87;;;30.40;23.10;;;;;;2256626;61;20432;-57
2023/06/10 01:50:11;0.00;0.00;0.62;0.00;0.00;0.62;3.30;2.60;;;30.40;23.10;;;;;;2255938;61;20412;-58
2023/06/10 01:52:57;0.00;0.00;0.62;0.00;0.00;0.62;4.80;3.50;;;30.40;23.20;;;;;;2256581;61;20454;-57
2023/06/10 01:55:44;0.00;0.00;0.62;0.00;0.00;0.62;4.03;2.60;;;30.40;23.20;;;;;;2256528;61;20362;-55
2023/06/10 01:58:29;0.00;0.00;0.62;0.00;0.00;0.62;3.63;3.00;;;30.40;23.20;;;;;;2256049;61;20370;-58
2023/06/10 02:01:14;0.00;0.00;0.62;0.00;0.00;0.62;5.37;3.27;;;30.40;23.20;;;;;;2256180;61;20432;-53
2023/06/10 02:03:59;0.00;0.00;0.62;0.00;0.00;0.62;4.37;3.10;;;30.30;23.20;;;;;;2255878;61;20427;-55
2023/06/10 02:06:43;0.00;0.00;0.62;0.00;0.00;0.62;3.57;2.77;;;30.30;23.20;;;;;;2256567;61;20449;-57
2023/06/10 02:09:28;0.00;0.00;0.62;0.00;0.00;0.62;3.50;2.73;;;30.30;23.20;;;;;;2256054;61;20408;-57
2023/06/10 02:12:17;0.00;0.00;0.62;0.00;0.00;0.62;5.53;3.43;;;30.30;23.20;;;;;;2256223;61;20386;-59
2023/06/10 02:15:02;0.00;0.00;0.62;0.00;0.00;0.62;2.90;2.70;;;30.30;23.20;;;;;;2255983;61;20420;-58
2023/06/10 02:17:49;0.00;0.00;0.62;0.00;0.00;0.62;3.67;2.80;;;30.30;23.30;;;;;;2256432;61;20410;-56
2023/06/10 02:20:34;0.00;0.00;0.62;0.00;0.00;0.62;3.37;2.93;;;30.30;23.30;;;;;;2256296;61;20404;-56
2023/06/10 02:23:18;0.00;0.00;0.62;0.00;0.00;0.62;5.23;2.73;;;30.30;23.30;;;;;;2256265;61;20398;-59
2023/06/10 02:26:03;0.00;0.00;0.62;0.00;0.00;0.62;4.13;2.80;;;30.30;23.30;;;;;;2255962;61;20361;-57
2023/06/10 02:28:49;0.00;0.00;0.62;0.00;0.00;0.62;3.80;2.67;;;30.30;23.30;;;;;;2256065;61;20789;-58
2023/06/10 02:31:35;0.00;0.00;0.62;0.00;0.00;0.62;3.33;2.77;;;30.30;23.90;;;;;;2256204;61;20386;-59
2023/06/10 02:34:21;0.00;0.00;0.62;0.00;0.00;0.62;4.10;2.40;;;30.30;23.40;;;;;;2256018;61;20777;-53
2023/06/10 02:37:06;0.00;0.00;0.62;0.00;0.00;0.62;3.17;2.60;;;30.30;23.30;;;;;;2255967;61;20784;-58
2023/06/10 02:39:51;0.00;0.00;0.62;0.00;0.00;0.62;3.43;3.13;;;30.20;23.30;;;;;;2256184;61;20678;-56
2023/06/10 02:42:36;0.00;0.00;0.62;0.00;0.00;0.62;3.70;2.87;;;30.20;23.30;;;;;;2255844;61;20441;-56
2023/06/10 02:45:24;0.00;0.00;0.62;0.00;0.00;0.62;3.37;2.80;;;30.20;23.30;;;;;;2256111;61;20767;-57
2023/06/10 02:48:09;0.00;0.00;0.62;0.00;0.00;0.62;4.17;3.10;;;30.20;23.40;;;;;;2255725;61;20366;-53
2023/06/10 02:50:55;0.00;0.00;0.62;0.00;0.00;0.62;3.03;2.70;;;30.20;23.40;;;;;;2256071;61;20440;-57
2023/06/10 02:53:49;0.00;0.00;0.62;0.00;0.00;0.62;2.90;2.60;;;30.20;23.40;;;;;;2251901;61;20386;-60
2023/06/10 02:56:34;0.00;0.00;0.62;0.00;0.00;0.62;3.40;2.80;;;30.20;23.40;;;;;;2252012;61;20369;-56
2023/06/10 02:59:22;0.00;0.00;0.62;0.00;0.00;0.62;6.00;3.00;;;30.20;23.40;;;;;;2251931;61;20367;-57
2023/06/10 03:02:08;0.00;0.00;0.62;0.00;0.00;0.62;3.23;2.63;;;30.20;23.40;;;;;;2251676;61;20437;-56
2023/06/10 03:05:00;0.00;0.00;0.62;0.00;0.00;0.62;3.13;2.83;;;30.20;23.50;;;;;;2251833;61;20375;-58
2023/06/10 03:07:47;0.00;0.00;0.62;0.00;0.00;0.62;3.60;2.83;;;30.20;24.00;;;;;;2252447;61;20387;-55
2023/06/10 03:10:33;0.00;0.00;0.62;0.00;0.00;0.62;5.03;3.13;;;30.20;23.50;;;;;;2251714;61;20503;-55
2023/06/10 03:13:19;0.00;0.00;0.62;0.00;0.00;0.62;3.73;3.03;;;30.20;23.50;;;;;;2251824;61;20425;-58
2023/06/10 03:16:04;0.00;0.00;0.62;0.00;0.00;0.62;3.80;2.83;;;30.10;23.40;;;;;;2251940;61;20371;-56
2023/06/10 03:18:53;0.00;0.00;0.62;0.00;0.00;0.62;4.30;3.20;;;30.10;23.40;;;;;;2251841;61;20748;-55
2023/06/10 03:21:39;0.00;0.00;0.62;0.00;0.00;0.62;3.00;2.50;;;30.10;23.50;;;;;;2251506;61;20398;-57
2023/06/10 03:24:24;0.00;0.00;0.62;0.00;0.00;0.62;4.83;3.07;;;30.10;23.50;;;;;;2252247;61;20362;-55
2023/06/10 03:27:09;0.00;0.00;0.62;0.00;0.00;0.62;3.40;3.10;;;30.10;23.50;;;;;;2252192;61;20788;-58
2023/06/10 03:29:55;0.00;0.00;0.62;0.00;0.00;0.62;4.70;3.17;;;30.10;23.50;;;;;;2252015;61;20876;-58
2023/06/10 03:32:41;0.00;0.00;0.62;0.00;0.00;0.62;4.93;3.13;;;30.10;23.50;;;;;;2251667;61;21053;-54
2023/06/10 03:35:30;0.00;0.00;0.62;0.00;0.00;0.62;3.40;3.10;;;30.10;23.50;;;;;;2251983;61;20917;-55
2023/06/10 03:38:14;0.00;0.00;0.62;0.00;0.00;0.62;4.70;3.60;;;30.00;23.50;;;;;;2251969;61;20367;-58
2023/06/10 03:40:59;0.00;0.00;0.62;0.00;0.00;0.62;3.93;3.53;;;30.00;23.50;;;;;;2252245;61;20482;-57
2023/06/10 03:43:44;0.00;0.00;0.62;0.00;0.00;0.62;3.70;3.30;;;30.00;23.50;;;;;;2252551;61;20742;-57
2023/06/10 03:46:30;0.00;0.00;0.62;0.00;0.00;0.62;3.73;3.30;;;30.00;23.50;;;;;;2253146;61;20420;-58
2023/06/10 03:49:16;0.00;0.00;0.62;0.00;0.00;0.62;4.80;3.20;;;30.00;23.60;;;;;;2256748;61;20448;-54
2023/06/10 03:52:03;0.00;0.00;0.62;0.00;0.00;0.62;3.03;2.67;;;30.00;23.60;;;;;;2256249;61;20401;-57
2023/06/10 03:54:48;0.00;0.00;0.62;0.00;0.00;0.62;3.67;3.10;;;30.00;23.60;;;;;;2256248;61;20362;-59
2023/06/10 03:57:33;0.00;0.00;0.62;0.00;0.00;0.62;3.50;2.77;;;30.00;23.60;;;;;;2257012;61;20361;-57
2023/06/10 04:00:21;0.00;0.00;0.62;0.00;0.00;0.62;4.03;2.93;;;30.00;23.60;;;;;;2256727;61;20441;-60
2023/06/10 04:03:08;0.00;0.00;0.62;0.00;0.00;0.62;3.43;3.13;;;30.00;23.60;;;;;;2256210;61;20376;-58
2023/06/10 04:05:58;0.00;0.00;0.62;0.00;0.00;0.62;4.70;2.97;;;30.00;23.70;;;;;;2256182;61;20450;-58
2023/06/10 04:08:45;0.00;0.00;0.62;0.00;0.00;0.62;3.20;2.90;;;29.90;23.70;;;;;;2256347;61;20358;-58
2023/06/10 04:11:29;0.00;0.00;0.62;0.00;0.00;0.62;4.37;3.03;;;29.90;23.70;;;;;;2256420;61;20424;-56
2023/06/10 04:14:16;0.00;0.00;0.62;0.00;0.00;0.62;3.90;3.10;;;29.90;23.70;;;;;;2256302;61;20412;-54
2023/06/10 04:17:02;0.00;0.00;0.62;0.00;0.00;0.62;3.67;3.27;;;29.90;23.70;;;;;;2256117;61;20496;-56
2023/06/10 04:19:48;0.00;0.00;0.62;0.00;0.00;0.62;5.23;3.60;;;29.90;23.70;;;;;;2256394;61;20448;-59
2023/06/10 04:22:33;0.00;0.00;0.62;0.00;0.00;0.62;3.10;2.80;;;29.90;23.70;;;;;;2256546;61;20416;-58
2023/06/10 04:25:20;0.00;0.00;0.62;0.00;0.00;0.62;3.77;3.40;;;29.90;24.30;;;;;;2256455;61;20424;-59
2023/06/10 04:28:07;0.00;0.00;0.62;0.00;0.00;0.62;3.43;2.80;;;29.90;23.70;;;;;;2256372;61;20712;-56
2023/06/10 04:30:53;0.00;0.00;0.62;0.00;0.00;0.62;3.43;3.13;;;29.90;23.70;;;;;;2256445;61;20916;-57
2023/06/10 04:33:38;0.00;0.00;0.62;0.00;0.00;0.62;4.40;3.40;;;29.90;23.70;;;;;;2256140;61;20912;-56
2023/06/10 04:36:23;0.00;0.00;0.62;0.00;0.00;0.62;4.00;3.37;;;29.90;23.70;;;;;;2256467;61;20409;-58
2023/06/10 04:39:10;0.00;0.00;0.62;0.00;0.00;0.62;3.93;3.10;;;29.90;23.70;;;;;;2256191;61;20907;-58
2023/06/10 04:41:56;0.00;0.00;0.62;0.00;0.00;0.62;3.73;3.20;;;29.80;23.70;;;;;;2256089;61;20448;-60
2023/06/10 04:44:41;0.00;0.00;0.62;0.00;0.00;0.62;3.53;3.00;;;29.80;23.70;;;;;;2256155;61;20422;-57
2023/06/10 04:47:26;0.00;0.00;0.62;0.00;0.00;0.62;4.20;3.30;;;29.80;23.70;;;;;;2256269;61;20397;-54
2023/06/10 04:50:11;0.00;0.00;0.62;0.00;0.00;0.62;3.57;3.27;;;29.80;23.70;;;;;;2256362;61;20397;-57
2023/06/10 04:52:57;0.00;0.00;0.62;0.00;0.00;0.62;4.00;3.40;;;29.80;23.80;;;;;;2256394;61;20398;-59
2023/06/10 04:55:43;0.00;0.00;0.62;0.00;0.00;0.62;4.23;3.57;;;29.80;23.80;;;;;;2256824;61;20416;-58
2023/06/10 04:58:30;0.00;0.00;0.62;0.00;0.00;0.62;4.33;3.47;;;29.80;23.80;;;;;;2256797;61;20374;-59
2023/06/10 05:01:14;0.00;0.00;0.62;0.00;0.00;0.62;3.93;3.40;;;29.80;23.80;;;;;;2256368;61;20401;-58
2023/06/10 05:03:59;0.00;0.00;0.62;0.00;0.00;0.62;4.10;3.10;;;29.80;23.80;;;;;;2256712;61;20413;-55
2023/06/10 05:06:44;0.00;0.00;0.62;0.00;0.00;0.62;3.50;2.97;;;29.80;23.80;;;;;;2256671;61;20890;-58
2023/06/10 05:09:29;0.00;0.00;0.62;0.00;0.00;0.62;3.60;2.83;;;29.80;23.80;;;;;;2256626;61;20896;-58
2023/06/10 05:12:14;0.00;0.00;0.62;0.00;0.00;0.62;5.13;3.10;;;29.80;23.80;;;;;;2256485;61;20437;-55
2023/06/10 05:15:00;0.00;0.00;0.62;0.00;0.00;0.62;4.30;3.13;;;29.80;23.80;;;;;;2256212;61;20392;-58
2023/06/10 05:17:44;0.00;0.00;0.62;0.00;0.00;0.62;4.90;3.17;;;29.80;23.80;;;;;;2256580;61;20486;-57
2023/06/10 05:20:29;0.00;0.00;0.62;0.00;0.00;0.62;3.30;3.00;;;29.80;23.80;;;;;;2256710;61;20385;-58
2023/06/10 05:23:14;0.00;0.00;0.62;0.00;0.00;0.62;3.90;2.63;;;29.70;23.80;;;;;;2256269;61;20398;-58
2023/06/10 05:25:59;0.00;0.00;0.62;0.00;0.00;0.62;3.37;3.07;;;29.70;23.80;;;;;;2256694;61;20485;-58
2023/06/10 05:28:44;0.00;0.00;0.62;0.00;0.00;0.62;5.40;3.07;;;29.80;23.90;;;;;;2256778;61;20362;-56
2023/06/10 05:31:29;0.00;0.00;0.62;0.00;0.00;0.62;3.73;3.10;;;29.70;23.80;;;;;;2256436;61;20385;-53
2023/06/10 05:34:14;0.00;0.00;0.62;0.00;0.00;0.62;3.20;2.90;;;29.70;23.80;;;;;;2256533;61;20377;-59
2023/06/10 05:36:58;0.00;0.00;0.62;0.00;0.00;0.62;3.27;2.80;;;29.70;23.90;;;;;;2256696;61;20946;-57
2023/06/10 05:39:43;0.00;0.00;0.62;0.00;0.00;0.62;3.20;2.90;;;29.70;23.90;;;;;;2256517;61;20468;-56
2023/06/10 05:42:28;0.00;0.00;0.62;0.00;0.00;0.62;3.47;2.90;;;29.70;24.40;;;;;;2256434;61;20996;-57
2023/06/10 05:45:12;0.00;0.00;0.62;0.00;0.00;0.62;4.30;3.10;;;29.70;23.90;;;;;;2256487;61;20365;-58
2023/06/10 05:47:59;0.00;0.00;0.62;0.00;0.00;0.62;3.93;3.53;;;29.70;23.90;;;;;;2256490;61;20369;-59
2023/06/10 05:50:48;0.00;0.00;0.62;0.00;0.00;0.62;4.63;3.90;;;29.70;23.90;;;;;;2256604;61;20385;-53
2023/06/10 05:53:32;0.00;0.00;0.62;0.00;0.00;0.62;5.03;3.40;;;29.70;23.90;;;;;;2487670;53;20350;-57
2023/06/10 05:56:17;0.00;0.00;0.62;0.00;0.00;0.62;3.40;3.10;;;29.70;24.40;;;;;;2252679;61;20366;-57
2023/06/10 05:59:02;0.00;0.00;0.62;0.00;0.00;0.62;4.47;4.07;;;29.70;23.90;;;;;;2252735;61;20410;-57
2023/06/10 06:01:46;0.00;0.00;0.62;0.00;0.00;0.62;3.50;3.20;;;29.70;24.00;;;;;;2252295;61;20878;-57
2023/06/10 06:04:33;0.00;0.00;0.62;0.00;0.00;0.62;3.47;3.17;;;29.60;23.90;;;;;;2252640;61;20781;-57
2023/06/10 06:07:20;0.00;0.00;0.62;0.00;0.00;0.62;4.47;3.90;;;29.70;24.00;;;;;;2252584;61;20387;-57
2023/06/10 06:10:06;0.00;0.00;0.62;0.00;0.00;0.62;4.87;3.20;;;29.60;23.90;;;;;;2252324;61;20402;-58
2023/06/10 06:12:50;0.00;0.00;0.62;0.00;0.00;0.62;3.80;3.40;;;29.60;23.90;;;;;;2252368;61;20787;-57
2023/06/10 06:15:35;0.00;0.00;0.62;0.00;0.00;0.62;4.43;3.30;;;29.60;23.90;;;;;;2252399;61;20363;-59
2023/06/10 06:18:20;0.00;0.00;0.62;0.00;0.00;0.62;6.70;3.47;;;29.60;24.00;;;;;;2252538;61;20862;-57
2023/06/10 06:21:06;0.00;0.00;0.62;0.00;0.00;0.62;4.93;3.70;;;29.60;24.00;;;;;;2252484;61;20522;-56
2023/06/10 06:23:50;0.00;0.00;0.62;0.00;0.00;0.62;3.33;3.03;;;29.60;24.00;;;;;;2252373;61;20370;-57
2023/06/10 06:26:35;0.00;0.00;0.62;0.00;0.00;0.62;4.63;3.80;;;29.60;24.00;;;;;;2252480;61;20443;-58
2023/06/10 06:29:20;0.00;0.00;0.62;0.00;0.00;0.62;4.90;3.43;;;29.60;24.00;;;;;;2252497;61;20494;-56
2023/06/10 06:32:06;0.00;0.00;0.62;0.00;0.00;0.62;3.70;3.40;;;29.60;24.00;;;;;;2252221;61;20425;-56
2023/06/10 06:34:54;0.00;0.00;0.62;0.00;0.00;0.62;3.60;3.30;;;29.60;24.10;;;;;;2252623;61;20451;-54
2023/06/10 06:37:40;0.00;0.00;0.62;0.00;0.00;0.62;3.50;3.03;;;29.60;24.10;;;;;;2252455;61;20549;-57
2023/06/10 06:40:40;0.00;0.00;0.62;0.00;0.00;0.62;3.83;3.20;;;29.60;24.10;;;;;;2251940;61;20460;-58
2023/06/10 06:43:25;0.00;0.00;0.62;0.00;0.00;0.62;5.10;3.20;;;29.60;24.10;;;;;;2252176;61;20398;-55
2023/06/10 06:46:28;0.00;0.00;0.62;0.00;0.00;0.62;5.00;3.20;;;29.60;24.10;;;;;;2252915;61;20582;-55
2023/06/10 06:49:13;0.00;0.00;0.62;0.00;0.00;0.62;3.53;3.10;;;29.60;24.20;;;;;;2256475;61;20470;-55
2023/06/10 06:51:57;0.00;0.00;0.62;0.00;0.00;0.62;4.37;3.87;;;29.60;24.20;;;;;;2256303;61;20615;-54
2023/06/10 06:54:43;0.00;0.00;0.62;0.00;0.00;0.62;3.67;3.37;;;29.60;24.20;;;;;;2256462;61;20807;-55
2023/06/10 06:57:28;0.00;0.00;0.62;0.00;0.00;0.62;3.80;3.00;;;29.60;24.20;;;;;;2256529;61;20398;-57
2023/06/10 07:00:13;0.00;0.00;0.62;0.00;0.00;0.62;4.87;4.03;;;29.60;24.20;;;;;;2256252;61;20915;-55
2023/06/10 07:02:58;0.00;0.00;0.62;0.00;0.00;0.62;3.83;3.43;;;29.50;24.20;;;;;;2256083;61;20393;-56
2023/06/10 07:05:44;0.00;0.00;0.62;0.00;0.00;0.62;3.90;2.90;;;29.60;24.20;;;;;;2256143;61;20385;-56
2023/06/10 07:08:29;0.00;0.00;0.62;0.00;0.00;0.62;5.03;3.17;;;29.50;24.20;;;;;;2256273;61;20386;-57
2023/06/10 07:11:14;0.00;0.00;0.62;0.00;0.00;0.62;3.80;3.40;;;29.50;24.20;;;;;;2256345;61;21027;-56
2023/06/10 07:13:59;0.00;0.00;0.62;0.00;0.00;0.62;3.87;2.80;;;29.50;24.20;;;;;;2256364;61;20370;-59
2023/06/10 07:16:45;0.00;0.00;0.62;0.00;0.00;0.62;4.60;3.33;;;29.50;24.20;;;;;;2256630;61;20365;-57
2023/06/10 07:19:30;0.00;0.00;0.62;0.00;0.00;0.62;4.63;3.87;;;29.50;24.30;;;;;;2256740;61;20366;-55
2023/06/10 07:22:15;0.00;0.00;0.62;0.00;0.00;0.62;3.30;3.00;;;29.50;24.30;;;;;;2255862;61;20931;-54
2023/06/10 07:25:00;0.00;0.00;0.62;0.00;0.00;0.62;4.23;3.50;;;29.50;24.30;;;;;;2256729;61;20377;-54
2023/06/10 07:27:46;0.00;0.00;0.62;0.00;0.00;0.62;3.93;3.30;;;29.50;24.30;;;;;;2256819;61;20829;-56
2023/06/10 07:30:31;0.00;0.00;0.62;0.00;0.00;0.62;3.87;3.40;;;29.50;24.30;;;;;;2256580;61;20391;-56
2023/06/10 07:33:16;0.00;0.00;0.62;0.00;0.00;0.62;4.10;3.63;;;29.50;24.40;;;;;;2256728;61;20365;-58
2023/06/10 07:36:00;0.00;0.00;0.62;0.00;0.00;0.62;3.60;3.10;;;29.50;24.30;;;;;;2256992;61;20900;-55
2023/06/10 07:38:45;0.00;0.00;0.62;0.00;0.00;0.62;4.03;3.57;;;29.50;24.40;;;;;;2256950;61;20365;-57
2023/06/10 07:41:30;0.00;0.00;0.62;0.00;0.00;0.62;5.50;3.97;;;29.50;24.40;;;;;;2256748;61;20879;-58
2023/06/10 07:44:16;0.00;0.00;0.62;0.00;0.00;0.62;3.83;3.50;;;29.50;24.40;;;;;;2256850;61;20802;-58
2023/06/10 07:47:01;0.00;0.00;0.62;0.00;0.00;0.62;4.23;3.20;;;29.50;24.40;;;;;;2260440;61;20386;-59
2023/06/10 07:49:45;0.00;0.00;0.62;0.00;0.00;0.62;4.20;3.33;;;29.50;24.40;;;;;;2261313;61;20361;-59
2023/06/10 07:52:31;0.00;0.00;0.62;0.00;0.00;0.62;5.27;4.07;;;29.50;24.40;;;;;;2260722;61;20405;-60
2023/06/10 07:55:16;0.00;0.00;0.62;0.00;0.00;0.62;4.20;3.40;;;29.50;24.40;;;;;;2261433;61;20369;-57
2023/06/10 07:58:00;0.00;0.00;0.62;0.00;0.00;0.62;4.30;3.00;;;29.50;24.40;;;;;;2261477;61;20401;-59
2023/06/10 08:00:46;0.00;0.00;0.62;0.00;0.00;0.62;3.53;2.93;;;29.50;24.50;;;;;;2257954;61;20386;-59
2023/06/10 08:03:31;0.00;0.00;0.62;0.00;0.00;0.62;4.17;3.00;;;29.50;24.50;;;;;;2261526;61;20433;-59
2023/06/10 08:06:17;0.00;0.00;0.62;0.00;0.00;0.62;4.13;2.83;;;29.50;24.50;;;;;;2261357;61;20417;-59
2023/06/10 08:09:02;0.00;0.00;0.62;0.00;0.00;0.62;3.50;3.20;;;29.50;24.50;;;;;;2257997;61;20485;-60
2023/06/10 08:11:47;0.00;0.00;0.62;0.00;0.00;0.62;3.93;3.53;;;29.50;24.50;;;;;;2261054;61;20382;-60
2023/06/10 08:14:32;0.00;0.00;0.62;0.00;0.00;0.62;4.40;3.23;;;29.50;24.60;;;;;;2261301;61;20377;-59
2023/06/10 08:17:18;0.00;0.00;0.62;0.00;0.00;0.62;4.50;3.50;;;29.50;24.60;;;;;;2260663;61;20417;-59
2023/06/10 08:20:04;0.00;0.00;0.62;0.00;0.00;0.62;3.73;3.30;;;29.50;24.70;;;;;;2261377;61;20378;-59
2023/06/10 08:22:49;0.00;0.00;0.62;0.00;0.00;0.62;3.83;3.50;;;29.50;24.70;;;;;;2260777;61;20397;-57
2023/06/10 08:25:34;0.00;0.00;0.62;0.00;0.00;0.62;4.10;3.40;;;29.50;24.70;;;;;;2261294;61;20346;-60
2023/06/10 08:28:18;0.00;0.00;0.62;0.00;0.00;0.62;3.67;3.20;;;29.50;24.70;;;;;;2260939;61;20440;-59
2023/06/10 08:31:03;0.00;0.00;0.62;0.00;0.00;0.62;4.10;3.30;;;29.50;24.70;;;;;;2261003;61;20432;-58
2023/06/10 08:33:49;0.00;0.00;0.62;0.00;0.00;0.62;4.00;3.50;;;29.50;24.70;;;;;;2260527;61;20377;-58
2023/06/10 08:36:35;0.00;0.00;0.62;0.00;0.00;0.62;4.40;3.80;;;29.50;24.70;;;;;;2257712;61;20370;-59
2023/06/10 08:39:20;0.00;0.00;0.62;0.00;0.00;0.62;4.43;3.00;;;29.50;24.70;;;;;;2261118;61;20432;-59
2023/06/10 08:42:13;0.00;0.00;0.62;0.00;0.00;0.62;3.97;3.47;;;29.50;24.70;;;;;;2260794;61;20398;-59
2023/06/10 08:45:00;0.00;0.00;0.62;0.00;0.00;0.62;4.83;3.57;;;29.50;24.70;;;;;;2260684;61;20381;-59
2023/06/10 08:47:49;0.00;0.00;0.62;0.00;0.00;0.62;4.80;3.47;;;29.50;24.70;;;;;;2260905;61;20370;-59
2023/06/10 08:50:37;0.00;0.00;0.62;0.00;0.00;0.62;4.10;3.70;;;29.50;24.70;;;;;;2260657;61;20437;-59
2023/06/10 08:53:24;0.00;0.00;0.62;0.00;0.00;0.62;4.63;2.87;;;29.50;24.70;;;;;;2260673;61;20370;-59
2023/06/10 08:56:10;0.00;0.00;0.62;0.00;0.00;0.62;4.37;3.53;;;29.50;24.70;;;;;;2260637;61;20416;-57
2023/06/10 08:58:56;0.00;0.00;0.62;0.00;0.00;0.62;3.83;3.43;;;29.50;24.70;;;;;;2260958;61;20381;-59
2023/06/10 09:01:42;0.00;0.00;0.62;0.00;0.00;0.62;4.80;3.40;;;29.50;24.70;;;;;;2260826;61;20785;-59
2023/06/10 09:04:27;0.00;0.00;0.62;0.00;0.00;0.62;3.83;3.43;;;29.50;24.70;;;;;;2261029;61;20393;-60
2023/06/10 09:07:14;0.00;0.00;0.62;0.00;0.00;0.62;4.57;3.83;;;29.50;24.70;;;;;;2260362;61;20364;-59
2023/06/10 09:10:03;0.00;0.00;0.62;0.00;0.00;0.62;3.60;3.30;;;29.50;24.70;;;;;;2261104;61;20381;-60
2023/06/10 09:12:48;0.00;0.00;0.62;0.00;0.00;0.62;3.97;3.43;;;29.50;24.70;;;;;;2260718;61;20361;-59
2023/06/10 09:15:33;0.00;0.00;0.62;0.00;0.00;0.62;3.63;3.30;;;29.50;24.70;;;;;;2260397;61;20373;-59
2023/06/10 09:18:18;0.00;0.00;0.62;0.00;0.00;0.62;4.77;3.73;;;29.50;24.70;;;;;;2260877;61;20420;-57
2023/06/10 09:21:03;0.00;0.00;0.62;0.00;0.00;0.62;4.40;3.40;;;29.50;24.70;;;;;;2260583;61;20389;-58
2023/06/10 09:23:50;0.00;0.00;0.62;0.00;0.00;0.62;3.40;3.10;;;29.50;24.70;;;;;;2260840;61;20445;-58
2023/06/10 09:26:34;0.00;0.00;0.62;0.00;0.00;0.62;3.67;3.37;;;29.50;24.70;;;;;;2260171;61;20370;-59
2023/06/10 09:29:22;0.00;0.00;0.62;0.00;0.00;0.62;3.37;3.07;;;29.50;24.70;;;;;;2260237;61;20436;-60
2023/06/10 09:32:08;0.00;0.00;0.62;0.00;0.00;0.62;3.70;3.40;;;29.50;24.70;;;;;;2260317;61;20397;-59
2023/06/10 09:34:53;0.00;0.00;0.62;0.00;0.00;0.62;3.60;3.30;;;29.50;24.70;;;;;;2260788;61;20373;-58
2023/06/10 09:37:38;0.00;0.00;0.62;0.00;0.00;0.62;3.30;3.00;;;29.50;24.70;;;;;;2260984;61;20370;-59
2023/06/10 09:40:25;0.00;0.00;0.62;0.00;0.00;0.62;3.33;3.03;;;29.50;24.70;;;;;;2260891;61;20443;-60
2023/06/10 09:43:12;0.00;0.00;0.62;0.00;0.00;0.62;3.50;3.03;;;29.50;24.70;;;;;;2259595;61;20390;-58
2023/06/10 09:45:57;0.00;0.00;0.62;0.00;0.00;0.62;4.07;3.30;;;29.50;24.70;;;;;;2260699;61;20362;-59
2023/06/10 09:48:46;0.00;0.00;0.62;0.00;0.00;0.62;3.37;3.07;;;29.50;24.70;;;;;;2511174;53;20362;-59
2023/06/10 09:51:31;0.00;0.00;0.62;0.00;0.00;0.62;3.70;3.37;;;29.50;24.70;;;;;;2257300;61;20413;-59
2023/06/10 09:54:15;0.00;0.00;0.62;0.00;0.00;0.62;3.97;3.60;;;29.60;24.70;;;;;;2260280;61;20426;-60
2023/06/10 09:57:07;0.00;0.00;0.62;0.00;0.00;0.62;3.20;2.60;;;29.60;24.70;;;;;;2260338;61;20409;-59
2023/06/10 09:59:54;0.00;0.00;0.62;0.00;0.00;0.62;4.03;3.70;;;29.60;24.70;;;;;;2260368;61;20377;-59
2023/06/10 10:02:47;0.00;0.00;0.62;0.00;0.00;0.62;3.63;2.90;;;29.60;24.70;;;;;;2260445;61;20436;-59
2023/06/10 10:05:32;0.00;0.00;0.62;0.00;0.00;0.62;4.07;3.27;;;29.60;24.70;;;;;;2260735;61;20405;-59
2023/06/10 10:08:17;0.00;0.00;0.62;0.00;0.00;0.62;4.20;3.80;;;29.60;24.70;;;;;;2260788;61;20413;-58
2023/06/10 10:11:03;0.00;0.00;0.62;0.00;0.00;0.62;3.80;3.10;;;29.60;24.70;;;;;;2260625;61;20385;-59
2023/06/10 10:13:50;0.00;0.00;0.62;0.00;0.00;0.62;3.27;2.90;;;29.60;24.70;;;;;;2260322;61;20362;-60
2023/06/10 10:16:40;0.00;0.00;0.62;0.00;0.00;0.62;4.17;3.53;;;29.60;24.70;;;;;;2260866;61;20942;-57
2023/06/10 10:19:30;0.00;0.00;0.62;0.00;0.00;0.62;4.67;3.27;;;29.60;24.70;;;;;;2260877;61;20819;-59
2023/06/10 10:22:24;0.00;0.00;0.62;0.00;0.00;0.62;5.73;4.20;;;29.60;24.70;;;;;;2260712;61;20401;-60
2023/06/10 10:25:12;0.00;0.00;0.62;0.00;0.00;0.62;3.07;2.77;;;29.60;24.70;;;;;;2260756;61;20358;-60
2023/06/10 10:28:05;0.00;0.00;0.62;0.00;0.00;0.62;3.90;3.50;;;29.60;24.70;;;;;;2260467;61;20770;-58
2023/06/10 10:30:58;0.00;0.00;0.62;0.00;0.00;0.62;4.10;3.20;;;29.60;24.70;;;;;;2257527;61;20385;-59
2023/06/10 10:33:53;0.00;0.00;0.62;0.00;0.00;0.62;3.33;3.03;;;29.70;24.80;;;;;;2257558;61;20357;-60
2023/06/10 10:36:38;0.00;0.00;0.62;0.00;0.00;0.62;3.77;3.17;;;29.70;24.80;;;;;;2260303;61;20397;-60
2023/06/10 10:39:26;0.00;0.00;0.62;0.00;0.00;0.62;4.27;3.13;;;29.70;24.80;;;;;;2260239;61;20421;-58
2023/06/10 10:42:11;0.00;0.00;0.62;0.00;0.00;0.62;3.33;3.03;;;29.70;24.80;;;;;;2260415;61;20885;-56
2023/06/10 10:44:56;0.00;0.00;0.62;0.00;0.00;0.62;3.47;3.17;;;29.70;24.80;;;;;;2260356;61;20382;-59
2023/06/10 10:47:44;0.00;0.00;0.62;0.00;0.00;0.62;3.30;3.00;;;29.70;25.30;;;;;;2260848;61;20370;-59
2023/06/10 10:50:30;0.00;0.00;0.62;0.00;0.00;0.62;3.63;3.20;;;29.70;24.80;;;;;;2260302;61;20393;-56
2023/06/10 10:53:20;0.00;0.00;0.62;0.00;0.00;0.62;4.90;4.20;;;29.70;24.80;;;;;;2259963;61;20972;-58
2023/06/10 10:56:08;0.00;0.00;0.62;0.00;0.00;0.62;3.73;3.43;;;29.70;24.80;;;;;;2260883;61;20649;-59